createdAt,value
2023-09-06T00:02:31.737Z,88.10
2023-09-06T00:05:34.413Z,88.10
2023-09-06T00:08:36.916Z,87.71
2023-09-06T00:11:41.113Z,87.63
2023-09-06T00:14:43.652Z,87.35
2023-09-06T00:17:46.184Z,88.08
2023-09-06T00:20:48.737Z,88.33
2023-09-06T00:23:51.253Z,88.74
2023-09-06T00:26:55.905Z,88.99
2023-09-06T00:29:58.628Z,88.57
2023-09-06T00:33:04.093Z,89.33
2023-09-06T00:36:08.048Z,89.35
2023-09-06T00:39:11.290Z,89.03
2023-09-06T00:42:13.723Z,88.89
2023-09-06T00:45:16.849Z,89.18
2023-09-06T00:48:22.863Z,89.70
2023-09-06T00:51:26.709Z,89.41
2023-09-06T00:54:29.311Z,89.57
2023-09-06T00:57:33.338Z,89.74
2023-09-06T01:00:36.704Z,90.15
2023-09-06T01:03:43.029Z,90.23
2023-09-06T01:06:48.389Z,90.35
2023-09-06T01:09:52.095Z,90.56
2023-09-06T01:12:56.510Z,91.05
2023-09-06T01:15:59.200Z,90.86
2023-09-06T01:19:02.284Z,90.55
2023-09-06T01:22:29.838Z,91.55
2023-09-06T01:25:32.960Z,91.79
2023-09-06T01:28:36.180Z,91.79
2023-09-06T01:31:38.786Z,92.02
2023-09-06T01:34:41.481Z,92.74
2023-09-06T01:37:44.008Z,92.23
2023-09-06T01:40:46.831Z,92.61
2023-09-06T01:43:51.524Z,92.70
2023-09-06T01:46:54.261Z,92.35
2023-09-06T01:49:58.636Z,92.45
2023-09-06T01:53:01.417Z,92.66
2023-09-06T01:56:04.107Z,92.39
2023-09-06T01:59:07.817Z,92.92
2023-09-06T02:02:10.372Z,93.05
2023-09-06T02:05:13.402Z,93.16
2023-09-06T02:08:17.556Z,93.49
2023-09-06T02:11:20.428Z,93.53
2023-09-06T02:14:23.890Z,93.61
2023-09-06T02:17:26.710Z,93.94
2023-09-06T02:20:29.446Z,93.85
2023-09-06T02:23:32.036Z,93.70
2023-09-06T02:26:34.539Z,94.05
2023-09-06T02:29:37.296Z,94.61
2023-09-06T02:32:40.057Z,92.81
2023-09-06T02:35:43.313Z,91.54
2023-09-06T02:38:47.787Z,90.55
2023-09-06T02:41:50.880Z,89.95
2023-09-06T02:44:55.091Z,89.58
2023-09-06T02:47:57.615Z,89.24
2023-09-06T02:51:01.121Z,89.11
2023-09-06T02:54:03.869Z,89.17
2023-09-06T02:57:06.312Z,89.48
2023-09-06T03:00:30.319Z,90.07
2023-09-06T03:03:33.286Z,90.38
2023-09-06T03:06:38.984Z,91.07
2023-09-06T03:09:46.205Z,91.83
2023-09-06T03:12:55.616Z,92.33
2023-09-06T03:16:01.316Z,92.50
2023-09-06T03:19:10.814Z,92.94
2023-09-06T03:22:14.337Z,92.53
2023-09-06T03:25:18.655Z,92.87
2023-09-06T03:28:22.737Z,93.07
2023-09-06T03:31:27.386Z,93.16
2023-09-06T03:34:30.037Z,93.46
2023-09-06T03:37:34.675Z,94.15
2023-09-06T03:40:38.126Z,94.34
2023-09-06T03:43:41.056Z,94.96
2023-09-06T03:46:43.774Z,95.29
2023-09-06T03:49:46.872Z,95.72
2023-09-06T03:52:51.608Z,96.62
2023-09-06T03:55:59.467Z,96.05
2023-09-06T03:59:12.774Z,95.78
2023-09-06T04:02:15.490Z,95.82
2023-09-06T04:05:24.227Z,95.71
2023-09-06T04:08:30.666Z,96.37
2023-09-06T04:11:35.673Z,96.49
2023-09-06T04:14:40.145Z,96.64
2023-09-06T04:17:44.550Z,96.71
2023-09-06T04:20:48.101Z,97.55
2023-09-06T04:23:53.648Z,97.10
2023-09-06T04:26:56.890Z,97.09
2023-09-06T04:29:59.735Z,97.11
2023-09-06T04:33:03.104Z,96.83
2023-09-06T04:36:06.251Z,96.89
2023-09-06T04:39:09.256Z,97.04
2023-09-06T04:42:14.815Z,97.30
2023-09-06T04:45:18.279Z,96.64
2023-09-06T04:48:25.138Z,96.18
2023-09-06T04:51:31.968Z,96.09
2023-09-06T04:54:37.103Z,95.42
2023-09-06T04:57:41.215Z,95.37
2023-09-06T05:00:49.152Z,95.11
2023-09-06T05:03:51.974Z,94.82
2023-09-06T05:06:56.230Z,94.74
2023-09-06T05:09:59.556Z,94.52
2023-09-06T05:13:02.750Z,94.03
2023-09-06T05:16:06.755Z,90.11
2023-09-06T05:19:09.577Z,88.63
2023-09-06T05:22:14.873Z,86.88
2023-09-06T05:25:18.131Z,85.82
2023-09-06T05:28:20.931Z,84.50
2023-09-06T05:31:29.170Z,83.79
2023-09-06T05:34:31.929Z,83.22
2023-09-06T05:37:34.840Z,83.00
2023-09-06T05:40:38.436Z,82.77
2023-09-06T05:43:41.410Z,83.03
2023-09-06T05:46:47.116Z,82.10
2023-09-06T05:49:53.716Z,81.23
2023-09-06T05:52:56.497Z,81.25
2023-09-06T05:56:00.257Z,80.80
2023-09-06T05:59:02.872Z,80.50
2023-09-06T06:02:06.997Z,79.94
2023-09-06T06:05:10.585Z,77.86
2023-09-06T06:08:13.307Z,76.45
2023-09-06T06:11:16.332Z,76.54
2023-09-06T06:14:19.077Z,76.05
2023-09-06T06:17:21.812Z,74.24
2023-09-06T06:20:38.397Z,73.96
2023-09-06T06:23:50.048Z,72.91
2023-09-06T06:26:52.713Z,72.13
2023-09-06T06:29:55.508Z,72.20
2023-09-06T06:33:01.707Z,71.00
2023-09-06T06:36:04.555Z,71.19
2023-09-06T06:39:07.164Z,69.95
2023-09-06T06:42:10.047Z,69.42
2023-09-06T06:45:18.619Z,69.67
2023-09-06T06:48:22.252Z,68.18
2023-09-06T06:51:30.066Z,70.07
2023-09-06T06:54:32.782Z,70.02
2023-09-06T06:57:36.876Z,68.13
2023-09-06T07:00:39.652Z,66.85
2023-09-06T07:03:42.553Z,67.18
2023-09-06T07:06:45.976Z,66.96
2023-09-06T07:09:48.640Z,67.37
2023-09-06T07:12:51.217Z,68.33
2023-09-06T07:15:53.833Z,66.99
2023-09-06T07:18:57.645Z,67.17
2023-09-06T07:22:01.606Z,66.14
2023-09-06T07:25:06.531Z,66.88
2023-09-06T07:28:17.172Z,66.23
2023-09-06T07:31:20.652Z,62.75
2023-09-06T07:34:23.535Z,61.63
2023-09-06T07:37:27.072Z,60.51
2023-09-06T07:40:29.577Z,60.36
2023-09-06T07:43:32.934Z,59.64
2023-09-06T07:46:35.518Z,59.91
2023-09-06T07:49:38.301Z,59.54
2023-09-06T07:52:41.043Z,58.89
2023-09-06T07:55:50.275Z,57.24
2023-09-06T07:58:52.933Z,57.69
2023-09-06T08:01:55.574Z,56.79
2023-09-06T08:04:59.022Z,56.57
2023-09-06T08:08:03.648Z,56.64
2023-09-06T08:11:07.447Z,55.72
2023-09-06T08:14:10.115Z,54.36
2023-09-06T08:17:12.622Z,54.21
2023-09-06T08:20:16.771Z,53.86
2023-09-06T08:23:19.446Z,53.33
2023-09-06T08:26:22.512Z,53.47
2023-09-06T08:29:25.258Z,53.50
2023-09-06T08:32:28.208Z,53.32
2023-09-06T08:35:31.695Z,51.80
2023-09-06T08:38:34.820Z,51.65
2023-09-06T08:41:39.246Z,51.11
2023-09-06T08:44:45.855Z,51.06
2023-09-06T08:47:50.807Z,51.26
2023-09-06T08:50:56.328Z,51.26
2023-09-06T08:54:01.340Z,51.00
2023-09-06T08:57:05.988Z,50.53
2023-09-06T09:00:11.184Z,48.75
2023-09-06T09:03:14.275Z,49.69
2023-09-06T09:06:17.458Z,47.26
2023-09-06T09:09:20.826Z,47.86
2023-09-06T09:12:26.294Z,47.92
2023-09-06T09:15:33.645Z,45.87
2023-09-06T09:18:39.825Z,46.13
2023-09-06T09:21:43.172Z,45.79
2023-09-06T09:24:46.402Z,47.97
2023-09-06T09:28:07.534Z,46.60
2023-09-06T09:31:17.196Z,47.56
2023-09-06T09:34:20.168Z,47.21
2023-09-06T09:37:23.888Z,45.97
2023-09-06T09:40:46.039Z,45.57
2023-09-06T09:44:14.016Z,44.24
2023-09-06T09:47:38.759Z,45.12
2023-09-06T09:50:42.858Z,45.20
2023-09-06T09:53:46.862Z,44.59
2023-09-06T09:57:04.079Z,42.95
2023-09-06T10:00:10.799Z,43.74
2023-09-06T10:03:16.771Z,43.74
2023-09-06T10:06:21.040Z,43.15
2023-09-06T10:09:23.753Z,42.96
2023-09-06T10:12:29.295Z,42.69
2023-09-06T10:15:34.052Z,43.79
2023-09-06T10:18:37.861Z,41.98
2023-09-06T10:21:42.729Z,42.08
2023-09-06T10:24:53.291Z,40.20
2023-09-06T10:27:58.039Z,40.98
2023-09-06T10:31:10.778Z,40.49
2023-09-06T10:34:14.930Z,40.16
2023-09-06T10:37:17.809Z,40.15
2023-09-06T10:40:21.503Z,40.25
2023-09-06T10:43:43.966Z,39.82
2023-09-06T10:46:46.844Z,40.92
2023-09-06T10:50:08.610Z,39.58
2023-09-06T10:53:19.096Z,38.53
2023-09-06T10:56:31.148Z,39.05
2023-09-06T10:59:47.170Z,36.90
2023-09-06T11:03:08.802Z,38.66
2023-09-06T11:06:11.745Z,37.80
2023-09-06T11:09:14.535Z,36.90
2023-09-06T11:12:18.585Z,36.53
2023-09-06T11:15:21.600Z,37.29
2023-09-06T11:18:24.621Z,36.93
2023-09-06T11:21:27.877Z,35.03
2023-09-06T11:24:37.727Z,36.96
2023-09-06T11:27:40.603Z,35.50
2023-09-06T11:30:45.845Z,32.51
2023-09-06T11:33:57.332Z,33.18
2023-09-06T11:37:04.845Z,34.88
2023-09-06T11:40:16.605Z,35.20
2023-09-06T11:43:24.367Z,33.85
2023-09-06T11:46:28.653Z,34.44
2023-09-06T11:49:35.160Z,33.48
2023-09-06T11:52:51.294Z,33.85
2023-09-06T11:56:00.922Z,33.52
2023-09-06T11:59:08.282Z,34.42
2023-09-06T12:02:14.562Z,33.22
2023-09-06T12:05:18.029Z,30.57
2023-09-06T12:08:23.751Z,30.47
2023-09-06T12:11:28.803Z,31.64
2023-09-06T12:14:32.803Z,30.24
2023-09-06T12:17:35.971Z,29.76
2023-09-06T12:20:38.868Z,28.92
2023-09-06T12:23:42.423Z,28.97
2023-09-06T12:26:45.404Z,27.56
2023-09-06T12:29:48.055Z,27.43
2023-09-06T12:32:50.864Z,27.90
2023-09-06T12:36:00.126Z,25.99
2023-09-06T12:39:07.636Z,27.36
2023-09-06T12:42:10.530Z,27.02
2023-09-06T12:45:27.353Z,25.52
2023-09-06T12:48:31.778Z,25.09
2023-09-06T12:51:35.495Z,25.46
2023-09-06T12:54:38.019Z,24.82
2023-09-06T12:57:41.015Z,25.93
2023-09-06T13:00:43.694Z,25.56
2023-09-06T13:03:47.078Z,26.20
2023-09-06T13:06:50.089Z,25.68
2023-09-06T13:09:52.750Z,24.39
2023-09-06T13:12:55.658Z,25.26
2023-09-06T13:15:58.450Z,25.02
2023-09-06T13:19:01.405Z,24.01
2023-09-06T13:22:04.996Z,22.88
2023-09-06T13:25:09.259Z,24.52
2023-09-06T13:28:12.015Z,25.16
2023-09-06T13:31:15.114Z,25.81
2023-09-06T13:34:18.425Z,23.84
2023-09-06T13:37:21.048Z,24.47
2023-09-06T13:40:23.665Z,22.09
2023-09-06T13:43:26.580Z,20.88
2023-09-06T13:46:29.404Z,20.37
2023-09-06T13:49:32.309Z,21.15
2023-09-06T13:52:35.549Z,21.91
2023-09-06T13:55:38.365Z,22.07
2023-09-06T13:58:41.118Z,24.83
2023-09-06T14:01:44.289Z,23.33
2023-09-06T14:04:48.784Z,21.26
2023-09-06T14:07:51.633Z,21.81
2023-09-06T14:10:55.372Z,20.35
2023-09-06T14:13:58.359Z,21.22
2023-09-06T14:17:20.965Z,20.60
2023-09-06T14:20:44.160Z,21.03
2023-09-06T14:23:47.980Z,19.37
2023-09-06T14:27:06.358Z,19.58
2023-09-06T14:30:10.004Z,20.27
2023-09-06T14:33:16.167Z,20.17
2023-09-06T14:36:18.823Z,19.79
2023-09-06T14:39:21.392Z,19.75
2023-09-06T14:42:24.111Z,20.27
2023-09-06T14:45:28.610Z,19.57
2023-09-06T14:48:32.959Z,20.11
2023-09-06T14:51:35.919Z,20.53
2023-09-06T14:54:38.536Z,21.50
2023-09-06T14:57:41.188Z,19.83
2023-09-06T15:00:43.905Z,20.01
2023-09-06T15:03:46.756Z,19.92
2023-09-06T15:06:59.390Z,20.04
2023-09-06T15:10:04.463Z,20.31
2023-09-06T15:13:09.181Z,20.21
2023-09-06T15:16:12.943Z,20.93
2023-09-06T15:19:15.601Z,22.43
2023-09-06T15:22:33.013Z,24.88
2023-09-06T15:25:41.288Z,26.21
2023-09-06T15:28:43.863Z,27.82
2023-09-06T15:31:47.169Z,29.33
2023-09-06T15:34:50.601Z,30.26
2023-09-06T15:38:04.965Z,31.10
2023-09-06T15:41:12.812Z,30.83
2023-09-06T15:44:15.576Z,28.03
2023-09-06T15:47:20.675Z,26.81
2023-09-06T15:50:26.295Z,25.84
2023-09-06T15:53:31.425Z,26.36
2023-09-06T15:56:34.012Z,27.83
2023-09-06T15:59:36.786Z,27.76
2023-09-06T16:02:41.019Z,28.13
2023-09-06T16:05:44.731Z,28.14
2023-09-06T16:08:47.420Z,28.01
2023-09-06T16:11:56.150Z,28.64
2023-09-06T16:14:59.638Z,29.29
2023-09-06T16:18:02.701Z,29.81
2023-09-06T16:21:08.420Z,33.16
2023-09-06T16:24:11.787Z,35.19
2023-09-06T16:27:14.397Z,36.57
2023-09-06T16:30:18.909Z,37.90
2023-09-06T16:33:22.017Z,38.70
2023-09-06T16:36:26.016Z,39.66
2023-09-06T16:39:30.623Z,40.04
2023-09-06T16:42:33.505Z,40.72
2023-09-06T16:45:36.269Z,41.29
2023-09-06T16:48:38.798Z,41.58
2023-09-06T16:51:41.297Z,42.47
2023-09-06T16:54:43.930Z,42.85
2023-09-06T16:57:46.653Z,43.17
2023-09-06T17:00:50.093Z,43.90
2023-09-06T17:03:52.691Z,44.45
2023-09-06T17:06:55.178Z,44.67
2023-09-06T17:09:57.669Z,45.52
2023-09-06T17:13:01.954Z,45.87
2023-09-06T17:16:05.676Z,46.20
2023-09-06T17:19:10.591Z,46.64
2023-09-06T17:22:13.694Z,47.01
2023-09-06T17:25:17.275Z,47.43
2023-09-06T17:28:19.797Z,47.43
2023-09-06T17:31:22.389Z,47.83
2023-09-06T17:34:24.890Z,48.03
2023-09-06T17:37:27.988Z,48.60
2023-09-06T17:40:30.565Z,49.15
2023-09-06T17:43:33.200Z,48.89
2023-09-06T17:46:37.198Z,49.37
2023-09-06T17:49:39.767Z,50.14
2023-09-06T17:52:42.365Z,50.76
2023-09-06T17:55:46.284Z,49.97
2023-09-06T17:58:50.941Z,49.89
2023-09-06T18:01:53.748Z,49.41
2023-09-06T18:04:56.475Z,49.50
2023-09-06T18:08:01.076Z,49.13
2023-09-06T18:11:10.546Z,48.79
2023-09-06T18:14:13.755Z,48.50
2023-09-06T18:17:17.256Z,48.44
2023-09-06T18:20:20.216Z,48.48
2023-09-06T18:23:23.144Z,48.72
2023-09-06T18:26:25.765Z,48.86
2023-09-06T18:29:28.327Z,49.01
2023-09-06T18:32:32.757Z,49.11
2023-09-06T18:35:35.412Z,49.21
2023-09-06T18:38:39.101Z,49.37
2023-09-06T18:41:44.604Z,49.63
2023-09-06T18:44:47.107Z,49.87
2023-09-06T18:47:51.670Z,50.13
2023-09-06T18:50:54.303Z,50.41
2023-09-06T18:53:57.157Z,50.78
2023-09-06T18:56:59.700Z,51.15
2023-09-06T19:00:04.245Z,51.42
2023-09-06T19:03:09.597Z,52.41
2023-09-06T19:06:12.461Z,52.77
2023-09-06T19:09:16.871Z,54.74
2023-09-06T19:12:19.626Z,55.27
2023-09-06T19:15:23.390Z,55.26
2023-09-06T19:18:26.297Z,56.10
2023-09-06T19:21:28.954Z,55.99
2023-09-06T19:24:31.421Z,56.19
2023-09-06T19:27:34.863Z,57.40
2023-09-06T19:30:37.756Z,57.84
2023-09-06T19:33:40.416Z,57.63
2023-09-06T19:36:42.851Z,58.36
2023-09-06T19:39:46.804Z,58.04
2023-09-06T19:42:52.824Z,58.02
2023-09-06T19:46:01.639Z,58.01
2023-09-06T19:49:06.900Z,57.68
2023-09-06T19:52:09.568Z,57.81
2023-09-06T19:55:12.069Z,58.60
2023-09-06T19:58:15.064Z,59.06
2023-09-06T20:01:17.849Z,58.90
2023-09-06T20:04:21.238Z,58.90
2023-09-06T20:07:24.039Z,58.71
2023-09-06T20:10:26.523Z,59.51
2023-09-06T20:13:29.236Z,61.05
2023-09-06T20:16:31.971Z,61.26
2023-09-06T20:19:34.605Z,61.90
2023-09-06T20:22:37.091Z,61.69
2023-09-06T20:25:39.680Z,62.33
2023-09-06T20:28:42.254Z,63.35
2023-09-06T20:31:44.792Z,63.27
2023-09-06T20:34:47.252Z,62.49
2023-09-06T20:37:49.736Z,62.72
2023-09-06T20:41:05.755Z,62.51
2023-09-06T20:44:08.548Z,63.27
2023-09-06T20:47:11.067Z,63.47
2023-09-06T20:50:19.444Z,63.81
2023-09-06T20:53:26.351Z,64.35
2023-09-06T20:56:28.932Z,64.69
2023-09-06T20:59:31.542Z,65.38
2023-09-06T21:02:34.660Z,65.87
2023-09-06T21:05:37.916Z,66.40
2023-09-06T21:08:40.730Z,66.34
2023-09-06T21:11:43.391Z,66.99
2023-09-06T21:14:45.989Z,67.44
2023-09-06T21:17:48.744Z,68.01
2023-09-06T21:20:51.441Z,68.19
2023-09-06T21:23:54.103Z,68.27
2023-09-06T21:26:56.721Z,68.82
2023-09-06T21:29:59.347Z,68.79
2023-09-06T21:33:01.919Z,69.39
2023-09-06T21:36:04.671Z,69.32
2023-09-06T21:39:07.458Z,70.42
2023-09-06T21:42:10.087Z,71.64
2023-09-06T21:45:13.098Z,71.58
2023-09-06T21:48:15.880Z,71.64
2023-09-06T21:51:19.208Z,72.00
2023-09-06T21:54:21.828Z,72.70
2023-09-06T21:57:24.452Z,72.86
2023-09-06T22:00:30.026Z,73.10
2023-09-06T22:03:51.173Z,72.86
2023-09-06T22:07:12.534Z,72.76
2023-09-06T22:10:33.678Z,72.77
2023-09-06T22:13:54.446Z,73.06
2023-09-06T22:16:57.044Z,72.90
2023-09-06T22:20:00.251Z,73.30
2023-09-06T22:23:02.891Z,73.51
2023-09-06T22:26:09.725Z,74.22
2023-09-06T22:29:12.507Z,74.53
2023-09-06T22:32:15.113Z,74.96
2023-09-06T22:35:17.767Z,75.23
2023-09-06T22:38:20.283Z,74.95
2023-09-06T22:41:22.860Z,74.84
2023-09-06T22:44:25.499Z,74.94
2023-09-06T22:47:28.025Z,75.69
2023-09-06T22:50:30.658Z,76.03
2023-09-06T22:53:33.217Z,75.96
2023-09-06T22:56:38.331Z,76.53
2023-09-06T22:59:40.864Z,76.94
2023-09-06T23:02:43.765Z,76.97
2023-09-06T23:05:46.329Z,76.90
2023-09-06T23:08:49.455Z,76.82
2023-09-06T23:11:53.372Z,77.13
2023-09-06T23:14:55.830Z,77.16
2023-09-06T23:17:58.330Z,77.49
2023-09-06T23:21:07.706Z,77.92
2023-09-06T23:24:13.274Z,78.25
2023-09-06T23:27:19.220Z,78.48
2023-09-06T23:30:23.119Z,78.49
2023-09-06T23:33:41.196Z,78.85
2023-09-06T23:36:43.726Z,78.43
2023-09-06T23:39:48.765Z,77.90
2023-09-06T23:42:54.759Z,78.53
2023-09-06T23:45:57.605Z,78.84
2023-09-06T23:49:00.788Z,78.96
2023-09-06T23:52:03.713Z,79.10
2023-09-06T23:55:07.419Z,78.91
2023-09-06T23:58:10.126Z,79.50
